Terminal Aerodrome Forecast
Issued by NWS Pueblo, CO

Current Version | Previous Version | Text Only | Print | Product List | Glossary On
Versions: 1 2 3 4 5 6 7 8 9 10 11 12 13 14 15 16 17 18 19 20 21 22 23 24 25 26 27 28 29 30 31 32 33 34 35 36 37 38 39 40
000
FTUS45 KPUB 291120
TAFALS
TAF
KALS 291120Z 2912/3012 VRB06KT P6SM SCT100 BKN150
     FM291800 21008KT P6SM SCT060 BKN080
     FM292300 20008KT P6SM VCSH SCT020 BKN060
     FM300200 12012KT 5SM -SN BKN015=

USA.gov is the U.S. government's official web portal to all federal, state and local government web resources and services.